Hovedside
METAR-TAF:

METAR-TAF

Lufthavner :

Kairo, Egypt

breddegrad: 30-08N, lengdegrad: 031-24E, høyde over havet: 64 m

Gjeldene værobservasjon

Denne rapporten ble laget for 17 minutter siden, klokken 12:00 UTC
Vind 9 kt fra Sørvest
Temperatur 21°C
Luftfuktighet 40%
Trykk 1020 hPa
Sikt 10 km eller mer
ingen skyer under 1500 m og ingen bygeskyer

METAR: HECA 181200Z 23009KT CAVOK 21/07 Q1020 NOSIG

Tid: 14:17 (12:17 UTC)

Varsel

Denne rapporten ble laget for 1 time og 17 minutter siden, klokken 11:00 UTC
Varsel gyldig fra 18. klokken 12 UTC til 19. klokken 18 UTC
Vind 9 kt fra Sørvest
Sikt 10 km eller mer
Få skyer i en høyde av 2500 ft
Blir
fra 19. klokken 12 UTC til 09. klokken 14 UTC
Vind 17 kt fra Vest-sørvest med vindkast opp mot 29 kt
Sannsynlighet 40%
fra 19. klokken 12 UTC til 19. klokken 18 UTC
Sikt: 4000 m
sand

TAF: HECA 181100Z 1812/1918 22009KT 9999 FEW025 BECMG 1912/0914 24017G29KT PROB40 1912/1918 4000 SA

Værobservasjoner og værvarsel for over 4000 flyplasser (METAR- og TAF-rapporter).

Tilgjengelige stasjoner er representert av de røde og gule prikkene på kartet.

Hold musepekeren over prikken for å se navnet på stasjonen.

Klikk så for å se værobservasjoner og -varsler.

For å forandre kartet kan du klikke på den grønne knappen med svart kryss for å zoome inn, på den grønne knappen med strek for å zoome ut, eller på de grønne pilene for å se tilstøtende kart.


METAR-TAF: